Time;durP1;ratioP1;P1;durP2;ratioP2;P2;SDS_P1;SDS_P2;PMS_P1;PMS_P2;Temp;Humidity;BMP_temperature;BMP_pressure;BME280_temperature;BME280_humidity;BME280_pressure;Samples;Min_cycle;Max_cycle;Signal;HPM_P1;HPM_P2
2022/08/01 00:01:24;;;;;;;6.57;4.40;;;20.10;99.90;;;;;;6169815;23;20023;-78
2022/08/01 00:03:49;;;;;;;6.53;4.80;;;20.50;99.90;;;;;;6195440;23;20016;-77
2022/08/01 00:06:15;;;;;;;9.32;4.95;;;20.20;99.90;;;;;;6122208;23;20059;-80
2022/08/01 00:08:41;;;;;;;6.03;4.43;;;20.60;99.90;;;;;;6194701;23;20012;-77
2022/08/01 00:11:08;;;;;;;6.57;4.10;;;20.20;99.90;;;;;;6193495;23;20381;-76
2022/08/01 00:13:34;;;;;;;6.72;5.10;;;20.40;99.90;;;;;;6169646;23;20020;-78
2022/08/01 00:16:00;;;;;;;5.53;4.25;;;20.20;99.90;;;;;;6169052;23;20329;-79
2022/08/01 00:18:26;;;;;;;6.95;4.45;;;21.10;99.90;;;;;;6168456;23;20024;-76
2022/08/01 00:20:52;;;;;;;7.57;4.70;;;21.00;99.90;;;;;;6194622;23;20036;-78
2022/08/01 00:23:17;;;;;;;6.05;4.97;;;21.30;99.90;;;;;;6145530;23;20004;-77
2022/08/01 00:25:43;;;;;;;7.03;4.68;;;20.80;99.90;;;;;;6195692;23;20021;-75
2022/08/01 00:28:09;;;;;;;5.93;4.72;;;21.10;99.90;;;;;;6171842;23;20005;-76
2022/08/01 00:30:35;;;;;;;8.02;4.47;;;21.10;99.90;;;;;;6171531;23;20286;-77
2022/08/01 00:33:02;;;;;;;6.20;4.45;;;21.20;99.90;;;;;;6195749;23;20004;-76
2022/08/01 00:35:27;;;;;;;9.60;4.70;;;21.10;99.90;;;;;;6196002;23;20009;-81
2022/08/01 00:37:53;;;;;;;7.03;4.07;;;20.30;99.90;;;;;;6123196;23;20013;-79
2022/08/01 00:40:19;;;;;;;7.97;4.30;;;20.40;99.90;;;;;;6196344;23;20016;-78
2022/08/01 00:42:45;;;;;;;6.78;4.47;;;21.20;99.90;;;;;;6171718;23;20015;-77
2022/08/01 00:45:11;;;;;;;6.80;3.78;;;20.70;99.90;;;;;;6145871;23;20016;-81
2022/08/01 00:47:37;;;;;;;6.90;4.45;;;20.80;99.90;;;;;;6195887;23;20035;-76
2022/08/01 00:50:04;;;;;;;5.75;3.92;;;20.50;99.90;;;;;;6195626;23;20068;-77
2022/08/01 00:52:31;;;;;;;5.72;3.83;;;20.40;99.90;;;;;;6172399;23;20047;-75
2022/08/01 00:54:56;;;;;;;7.35;4.15;;;21.20;99.90;;;;;;6181413;23;20325;-74
2022/08/01 00:57:22;;;;;;;7.55;4.47;;;21.00;99.90;;;;;;6181439;23;20012;-74
2022/08/01 00:59:48;;;;;;;5.90;4.10;;;20.30;99.90;;;;;;6181656;23;20020;-75
2022/08/01 01:02:14;;;;;;;8.68;5.00;;;20.30;99.90;;;;;;6202528;23;20012;-80
2022/08/01 01:04:39;;;;;;;5.63;4.35;;;20.80;99.90;;;;;;6196570;23;20198;-79
2022/08/01 01:07:24;;;;;;;7.97;5.25;;;20.20;99.90;;;;;;6197014;23;20338;-81
2022/08/01 01:10:30;;;;;;;8.15;4.65;;;20.80;99.90;;;;;;6198747;23;20073;-75
2022/08/01 01:13:17;;;;;;;7.15;4.18;;;20.50;99.90;;;;;;6084198;23;20074;-75
2022/08/01 01:15:54;;;;;;;5.05;4.22;;;21.00;99.90;;;;;;6177475;23;20024;-73
2022/08/01 01:18:30;;;;;;;7.13;4.07;;;20.20;99.90;;;;;;6183509;23;20012;-73
2022/08/01 01:21:17;;;;;;;5.88;3.90;;;20.30;99.90;;;;;;6200769;23;20095;-78
2022/08/01 01:24:25;;;;;;;4.28;3.20;;;19.90;99.90;;;;;;6196971;23;20024;-80
2022/08/01 01:27:00;;;;;;;6.93;3.03;;;20.60;99.90;;;;;;6196447;23;20020;-77
2022/08/01 01:29:31;;;;;;;3.83;2.90;;;20.10;99.90;;;;;;6171550;23;20020;-78
2022/08/01 01:32:14;;;;;;;6.32;2.60;;;20.60;99.90;;;;;;6171092;23;20012;-80
2022/08/01 01:34:43;;;;;;;4.88;2.40;;;20.40;99.90;;;;;;6169864;23;20318;-76
2022/08/01 01:37:14;;;;;;;7.10;3.00;;;20.60;99.90;;;;;;6171646;23;20012;-74
2022/08/01 01:39:41;;;;;;;5.32;2.80;;;20.20;99.90;;;;;;6171000;23;20039;-76
2022/08/01 01:42:07;;;;;;;5.35;2.50;;;20.50;99.90;;;;;;6170756;23;20004;-77
2022/08/01 01:44:35;;;;;;;6.85;2.65;;;19.70;99.90;;;;;;6194000;23;20078;-76
2022/08/01 01:47:02;;;;;;;6.95;3.28;;;20.40;99.90;;;;;;6147007;23;20021;-77
2022/08/01 01:49:29;;;;;;;7.78;2.60;;;19.70;99.90;;;;;;6195888;23;20218;-77
2022/08/01 01:51:58;;;;;;;8.25;2.80;;;19.60;99.90;;;;;;6196154;23;20245;-77
2022/08/01 01:54:33;;;;;;;7.25;2.88;;;19.60;99.90;;;;;;6196367;23;20048;-77
2022/08/01 01:57:01;;;;;;;7.13;2.10;;;19.40;99.90;;;;;;6171675;23;20048;-78
2022/08/01 01:59:30;;;;;;;5.00;2.30;;;19.40;99.90;;;;;;6147476;23;20016;-78
2022/08/01 02:01:59;;;;;;;6.93;2.17;;;19.70;99.90;;;;;;6170565;23;20019;-79
2022/08/01 02:04:27;;;;;;;4.82;1.88;;;20.20;99.90;;;;;;6196442;23;20116;-78
2022/08/01 02:06:53;;;;;;;2.92;1.70;;;19.50;99.90;;;;;;6171405;23;20016;-76
2022/08/01 02:09:20;;;;;;;9.48;2.08;;;19.30;99.90;;;;;;6170784;23;20021;-77
2022/08/01 02:11:50;;;;;;;5.20;2.00;;;20.10;99.90;;;;;;6196020;23;20021;-78
2022/08/01 02:14:19;;;;;;;6.03;2.05;;;20.10;99.90;;;;;;6170396;23;20530;-79
2022/08/01 02:16:47;;;;;;;5.75;2.03;;;20.00;99.90;;;;;;6195533;23;20016;-78
2022/08/01 02:19:14;;;;;;;5.88;2.03;;;19.50;99.90;;;;;;6170706;23;20063;-78
2022/08/01 02:22:01;;;;;;;7.30;2.10;;;19.20;99.90;;;;;;6170831;23;20015;-79
2022/08/01 02:24:37;;;;;;;6.78;2.30;;;19.30;99.90;;;;;;6194798;23;20048;-77
2022/08/01 02:27:12;;;;;;;5.07;1.83;;;19.90;99.90;;;;;;6195994;23;20062;-79
2022/08/01 02:29:43;;;;;;;4.07;1.75;;;19.00;99.90;;;;;;6170476;23;20194;-76
2022/08/01 02:32:15;;;;;;;7.00;2.22;;;20.00;99.90;;;;;;6170090;23;20028;-77
2022/08/01 02:34:45;;;;;;;5.80;2.10;;;19.90;99.90;;;;;;6194743;23;20218;-76
2022/08/01 02:37:12;;;;;;;6.93;2.60;;;19.50;99.90;;;;;;6196380;23;20063;-80
2022/08/01 02:39:39;;;;;;;9.75;2.95;;;19.90;99.90;;;;;;6121846;23;20075;-80
2022/08/01 02:42:07;;;;;;;5.72;2.22;;;19.00;99.90;;;;;;6168214;23;20005;-80
2022/08/01 02:44:37;;;;;;;5.63;2.45;;;19.60;99.90;;;;;;6194515;23;20372;-78
2022/08/01 02:47:04;;;;;;;6.65;2.50;;;19.90;99.90;;;;;;6170145;23;20020;-79
2022/08/01 02:49:43;;;;;;;8.13;2.60;;;19.80;99.90;;;;;;6146930;23;20016;-78
2022/08/01 02:52:13;;;;;;;11.23;3.47;;;19.90;99.90;;;;;;6170608;23;20067;-78
2022/08/01 02:54:41;;;;;;;13.50;3.80;;;19.80;99.90;;;;;;6195569;23;20084;-78
2022/08/01 02:57:08;;;;;;;10.60;3.25;;;19.40;99.90;;;;;;6197312;23;20013;-77
2022/08/01 02:59:37;;;;;;;7.90;3.28;;;18.90;99.90;;;;;;6172535;23;20013;-79
2022/08/01 03:02:05;;;;;;;9.18;3.50;;;19.70;99.90;;;;;;6196656;23;20015;-76
2022/08/01 03:04:33;;;;;;;14.75;4.10;;;18.90;99.90;;;;;;6172556;23;20055;-78
2022/08/01 03:07:01;;;;;;;8.63;3.10;;;19.20;99.90;;;;;;6170945;23;20071;-79
2022/08/01 03:09:31;;;;;;;8.25;3.22;;;19.50;99.90;;;;;;6172653;23;20021;-78
2022/08/01 03:12:02;;;;;;;10.70;3.28;;;19.40;99.90;;;;;;6171523;23;20013;-81
2022/08/01 03:14:30;;;;;;;13.23;3.60;;;19.50;99.90;;;;;;6172070;23;20020;-80
2022/08/01 03:16:57;;;;;;;7.95;3.25;;;19.30;99.90;;;;;;6171448;23;20016;-83
2022/08/01 03:19:25;;;;;;;8.90;3.90;;;18.60;99.90;;;;;;6172015;23;20047;-81
2022/08/01 03:21:52;;;;;;;8.57;3.28;;;18.60;99.90;;;;;;6195544;23;20333;-78
2022/08/01 03:24:19;;;;;;;8.63;3.50;;;19.40;99.90;;;;;;6198052;23;20036;-79
2022/08/01 03:26:46;;;;;;;8.25;3.47;;;18.60;99.90;;;;;;6145749;23;20070;-77
2022/08/01 03:29:17;;;;;;;9.25;3.58;;;18.60;99.90;;;;;;6172654;23;20307;-79
2022/08/01 03:31:46;;;;;;;12.52;4.03;;;19.30;99.90;;;;;;6170154;23;20075;-80
2022/08/01 03:34:12;;;;;;;7.97;3.30;;;19.20;99.90;;;;;;6171165;23;20020;-76
2022/08/01 03:36:55;;;;;;;11.93;3.50;;;18.50;99.90;;;;;;6194942;23;20016;-80
2022/08/01 03:39:27;;;;;;;10.40;3.67;;;19.00;99.90;;;;;;6197216;23;20202;-78
2022/08/01 03:41:59;;;;;;;8.00;3.25;;;18.40;99.90;;;;;;6169895;23;20253;-82
2022/08/01 03:44:28;;;;;;;7.05;3.45;;;18.50;99.90;;;;;;6170951;23;20016;-78
2022/08/01 03:47:03;;;;;;;9.45;3.53;;;18.80;99.90;;;;;;6193880;23;20029;-78
2022/08/01 03:49:32;;;;;;;11.65;3.58;;;19.00;99.90;;;;;;6172105;23;20024;-79
2022/08/01 03:52:01;;;;;;;7.68;2.95;;;18.90;99.90;;;;;;6194194;23;20206;-80
2022/08/01 03:54:33;;;;;;;9.85;3.47;;;18.80;99.90;;;;;;6195349;23;20043;-81
2022/08/01 03:57:00;;;;;;;12.05;3.72;;;18.70;99.90;;;;;;6194744;23;20198;-77
2022/08/01 03:59:26;;;;;;;9.40;3.30;;;18.30;99.90;;;;;;6173040;23;20044;-78
2022/08/01 04:01:53;;;;;;;9.88;3.15;;;18.70;99.90;;;;;;6196683;23;20218;-81
2022/08/01 04:04:19;;;;;;;9.00;3.25;;;18.50;99.90;;;;;;6172733;23;20063;-79
2022/08/01 04:06:45;;;;;;;10.25;3.17;;;18.00;99.90;;;;;;6172341;23;20026;-79
2022/08/01 04:09:11;;;;;;;11.25;3.80;;;18.80;99.90;;;;;;6172279;23;20016;-75
2022/08/01 04:11:37;;;;;;;13.05;3.85;;;18.70;99.90;;;;;;6172829;23;20013;-78
2022/08/01 04:14:03;;;;;;;10.57;3.17;;;18.10;99.90;;;;;;6148782;23;20012;-80
2022/08/01 04:16:29;;;;;;;7.93;3.33;;;18.60;99.90;;;;;;6171767;23;20076;-80
2022/08/01 04:18:55;;;;;;;10.63;3.03;;;18.50;99.90;;;;;;6196074;23;20063;-79
2022/08/01 04:21:24;;;;;;;14.20;3.83;;;18.00;99.90;;;;;;6170467;23;20008;-78
2022/08/01 04:23:52;;;;;;;9.70;3.00;;;17.90;99.90;;;;;;6197441;23;20020;-77
2022/08/01 04:26:19;;;;;;;9.55;3.10;;;18.60;99.90;;;;;;6198928;23;20012;-79
2022/08/01 04:28:47;;;;;;;8.52;3.05;;;18.60;99.90;;;;;;6172501;23;20027;-80
2022/08/01 04:31:16;;;;;;;9.30;2.58;;;18.10;99.90;;;;;;6198382;23;20040;-80
2022/08/01 04:33:47;;;;;;;13.60;3.17;;;17.80;99.90;;;;;;6198983;23;20328;-77
2022/08/01 04:36:14;;;;;;;8.00;2.97;;;17.90;99.90;;;;;;6174571;23;20167;-78
2022/08/01 04:38:42;;;;;;;13.75;3.13;;;17.90;99.90;;;;;;6173152;23;20009;-78
2022/08/01 04:41:10;;;;;;;10.63;2.78;;;18.50;99.90;;;;;;6149959;23;20064;-78
2022/08/01 04:43:38;;;;;;;15.68;3.03;;;18.40;99.90;;;;;;6174630;23;20017;-79
2022/08/01 04:46:05;;;;;;;9.65;2.85;;;18.50;99.90;;;;;;6198207;23;20018;-80
2022/08/01 04:48:33;;;;;;;13.60;3.38;;;17.80;99.90;;;;;;6199757;23;20079;-79
2022/08/01 04:50:59;;;;;;;11.85;2.95;;;17.70;99.90;;;;;;6199208;23;20015;-77
2022/08/01 04:53:25;;;;;;;12.50;2.88;;;18.40;99.90;;;;;;6195474;23;20017;-81
2022/08/01 04:55:51;;;;;;;11.93;3.28;;;17.90;99.90;;;;;;6172350;23;20017;-76
2022/08/01 04:58:17;;;;;;;16.23;3.78;;;17.80;99.90;;;;;;6197199;23;20017;-78
2022/08/01 05:00:43;;;;;;;11.43;3.20;;;17.60;99.90;;;;;;6172089;23;20020;-78
2022/08/01 05:03:09;;;;;;;9.00;3.30;;;17.50;99.90;;;;;;6148389;23;20026;-77
2022/08/01 05:05:35;;;;;;;16.65;3.53;;;18.10;99.90;;;;;;6148945;23;20016;-77
2022/08/01 05:08:01;;;;;;;10.82;3.55;;;18.00;99.90;;;;;;6172343;23;20307;-80
2022/08/01 05:10:27;;;;;;;18.30;4.72;;;17.90;99.90;;;;;;6172249;23;20024;-76
2022/08/01 05:12:53;;;;;;;13.95;3.55;;;18.00;99.90;;;;;;6146990;23;20048;-76
2022/08/01 05:15:19;;;;;;;8.52;4.28;;;17.50;99.90;;;;;;6147531;23;20023;-80
2022/08/01 05:17:44;;;;;;;9.95;3.13;;;17.30;99.90;;;;;;6197087;23;20199;-77
2022/08/01 05:20:11;;;;;;;10.52;3.00;;;17.30;99.90;;;;;;6197645;23;20009;-79
2022/08/01 05:22:37;;;;;;;15.98;3.45;;;17.80;99.90;;;;;;6196449;23;20008;-77
2022/08/01 05:25:04;;;;;;;13.15;3.25;;;17.40;99.90;;;;;;6196361;23;20075;-79
2022/08/01 05:27:30;;;;;;;12.32;3.15;;;17.50;99.90;;;;;;6147923;23;20313;-77
2022/08/01 05:29:56;;;;;;;16.15;3.17;;;17.30;99.90;;;;;;6145500;23;20008;-79
2022/08/01 05:32:22;;;;;;;13.77;3.40;;;17.20;99.90;;;;;;6147435;23;20263;-78
2022/08/01 05:34:48;;;;;;;11.90;3.25;;;17.30;99.90;;;;;;6173212;23;20069;-78
2022/08/01 05:37:14;;;;;;;12.18;3.10;;;18.00;99.90;;;;;;6174243;23;20019;-78
2022/08/01 05:39:39;;;;;;;14.70;2.90;;;18.00;99.90;;;;;;6173694;23;20017;-78
2022/08/01 05:42:05;;;;;;;15.63;3.78;;;17.50;99.90;;;;;;6148462;23;20295;-76
2022/08/01 05:44:31;;;;;;;12.10;3.55;;;18.00;99.90;;;;;;6173745;23;20294;-77
2022/08/01 05:46:57;;;;;;;16.73;3.25;;;18.10;99.90;;;;;;6173506;23;20072;-77
2022/08/01 05:49:23;;;;;;;12.30;3.22;;;17.30;99.90;;;;;;6173135;23;20024;-78
2022/08/01 05:51:49;;;;;;;19.60;4.10;;;17.60;99.90;;;;;;6147497;23;20012;-79
2022/08/01 05:54:14;;;;;;;12.60;3.53;;;17.30;99.90;;;;;;6148712;23;20035;-77
2022/08/01 05:56:40;;;;;;;12.55;3.35;;;17.70;99.90;;;;;;6173912;23;20599;-77
2022/08/01 05:59:06;;;;;;;15.50;3.05;;;17.70;99.90;;;;;;6173126;23;20107;-79
2022/08/01 06:01:32;;;;;;;12.40;3.40;;;17.80;99.90;;;;;;6173605;23;20063;-78
2022/08/01 06:03:58;;;;;;;11.73;3.00;;;17.40;99.90;;;;;;6173044;23;20016;-80
2022/08/01 06:06:24;;;;;;;14.18;3.28;;;17.40;99.90;;;;;;6148989;23;20048;-80
2022/08/01 06:08:50;;;;;;;15.43;3.92;;;17.60;99.90;;;;;;6171476;23;20199;-79
2022/08/01 06:11:15;;;;;;;14.05;3.08;;;17.50;99.90;;;;;;6123715;23;20293;-79
2022/08/01 06:13:41;;;;;;;12.95;3.28;;;17.90;99.90;;;;;;6196407;23;20075;-80
2022/08/01 06:16:07;;;;;;;14.60;4.07;;;17.40;99.90;;;;;;6146941;23;20020;-79
2022/08/01 06:18:33;;;;;;;13.30;3.50;;;17.50;99.90;;;;;;6123320;23;20008;-77
2022/08/01 06:20:59;;;;;;;18.25;3.67;;;17.50;99.90;;;;;;6172256;23;20010;-77
2022/08/01 06:23:24;;;;;;;13.00;3.60;;;17.70;99.90;;;;;;6123071;23;20210;-79
2022/08/01 06:25:54;;;;;;;12.32;3.50;;;18.00;99.90;;;;;;6171843;23;20086;-77
2022/08/01 06:28:21;;;;;;;11.60;3.17;;;17.80;99.90;;;;;;6196416;23;20186;-77
2022/08/01 06:30:46;;;;;;;18.30;4.28;;;17.40;99.90;;;;;;6171973;23;20005;-77
2022/08/01 06:33:12;;;;;;;11.77;3.88;;;17.90;99.90;;;;;;6171582;23;20059;-77
2022/08/01 06:35:38;;;;;;;12.80;2.92;;;17.70;99.90;;;;;;6123645;23;20064;-79
2022/08/01 06:38:03;;;;;;;14.45;3.38;;;17.70;99.90;;;;;;6172004;23;20362;-78
2022/08/01 06:40:29;;;;;;;13.60;3.78;;;17.70;99.90;;;;;;6147832;23;20012;-78
2022/08/01 06:42:55;;;;;;;15.27;3.25;;;18.00;99.90;;;;;;6170815;23;20012;-79
2022/08/01 06:45:25;;;;;;;8.15;2.95;;;17.80;99.90;;;;;;6172154;23;20303;-80
2022/08/01 06:47:51;;;;;;;12.93;3.33;;;18.10;99.90;;;;;;6196509;23;20222;-79
2022/08/01 06:50:17;;;;;;;13.85;2.97;;;17.50;99.90;;;;;;6195981;23;20025;-79
2022/08/01 06:52:43;;;;;;;20.33;3.33;;;17.70;99.90;;;;;;6172233;23;20016;-79
2022/08/01 06:55:09;;;;;;;7.32;3.20;;;17.80;99.90;;;;;;6123154;23;20020;-79
2022/08/01 06:57:35;;;;;;;10.95;2.92;;;17.60;99.90;;;;;;6148415;23;20063;-80
2022/08/01 07:00:10;;;;;;;8.43;3.00;;;18.10;99.90;;;;;;6122177;23;20008;-80
2022/08/01 07:02:36;;;;;;;12.02;2.97;;;18.10;99.90;;;;;;6171622;23;20008;-79
2022/08/01 07:05:03;;;;;;;17.90;4.47;;;18.00;99.90;;;;;;6172643;23;20108;-78
2022/08/01 07:07:30;;;;;;;7.85;2.88;;;18.10;99.90;;;;;;6172964;23;20012;-79
2022/08/01 07:09:55;;;;;;;10.82;2.72;;;18.20;99.90;;;;;;6171919;23;20048;-79
2022/08/01 07:12:21;;;;;;;10.13;2.88;;;17.90;99.90;;;;;;6171776;23;20047;-80
2022/08/01 07:14:47;;;;;;;12.07;2.80;;;17.90;99.90;;;;;;6171967;23;20283;-79
2022/08/01 07:17:14;;;;;;;11.95;3.00;;;17.90;99.90;;;;;;6148582;23;20028;-79
2022/08/01 07:19:43;;;;;;;12.88;3.38;;;18.30;99.90;;;;;;6148271;23;20017;-79
2022/08/01 07:22:08;;;;;;;10.20;3.10;;;18.20;99.90;;;;;;6171200;23;20215;-80
2022/08/01 07:24:34;;;;;;;9.00;2.58;;;18.20;99.90;;;;;;6170596;23;20012;-79
2022/08/01 07:27:00;;;;;;;11.07;3.13;;;18.10;99.90;;;;;;6146276;23;20019;-77
2022/08/01 07:29:25;;;;;;;9.32;2.97;;;18.30;99.90;;;;;;6122618;23;20048;-78
2022/08/01 07:31:53;;;;;;;16.58;3.67;;;18.30;99.90;;;;;;6171914;23;20040;-78
2022/08/01 07:34:20;;;;;;;14.55;3.70;;;18.50;99.90;;;;;;6196356;23;20024;-78
2022/08/01 07:36:45;;;;;;;14.50;3.88;;;18.40;99.90;;;;;;6171040;23;20040;-78
2022/08/01 07:39:11;;;;;;;15.63;3.35;;;18.20;99.90;;;;;;6170463;23;20008;-79
2022/08/01 07:41:37;;;;;;;9.55;2.72;;;18.50;99.90;;;;;;6147780;23;20102;-79
2022/08/01 07:44:03;;;;;;;14.90;3.17;;;18.70;99.90;;;;;;6171915;23;20015;-80
2022/08/01 07:46:30;;;;;;;11.00;3.55;;;18.60;99.90;;;;;;6172296;23;20028;-77
2022/08/01 07:48:56;;;;;;;8.73;3.35;;;18.70;99.90;;;;;;6197241;23;20326;-78
2022/08/01 07:51:22;;;;;;;14.18;3.20;;;18.50;99.90;;;;;;6171231;23;20242;-78
2022/08/01 07:53:47;;;;;;;10.73;2.75;;;18.80;99.90;;;;;;6171663;23;20024;-78
2022/08/01 07:56:13;;;;;;;12.40;2.80;;;18.70;99.90;;;;;;6147014;23;20190;-79
2022/08/01 07:58:39;;;;;;;9.45;2.92;;;18.40;99.90;;;;;;6171948;23;20017;-78
2022/08/01 08:01:04;;;;;;;11.15;2.88;;;18.10;99.90;;;;;;6146891;23;20005;-79
2022/08/01 08:03:30;;;;;;;10.18;2.47;;;18.10;99.90;;;;;;6147355;23;20058;-79
2022/08/01 08:05:56;;;;;;;8.27;2.40;;;18.00;99.90;;;;;;6196352;23;20008;-78
2022/08/01 08:08:22;;;;;;;9.52;2.53;;;18.10;99.90;;;;;;6170612;23;20040;-79
2022/08/01 08:10:48;;;;;;;11.90;2.35;;;18.00;99.90;;;;;;6122828;23;20017;-78
2022/08/01 08:13:14;;;;;;;10.55;2.22;;;18.10;99.90;;;;;;6170264;23;20028;-77
2022/08/01 08:15:40;;;;;;;7.65;2.13;;;18.10;99.90;;;;;;6146885;23;20048;-78
2022/08/01 08:18:06;;;;;;;9.38;2.42;;;18.10;99.90;;;;;;6171359;23;20081;-77
2022/08/01 08:20:31;;;;;;;7.65;2.17;;;18.10;99.90;;;;;;6200089;23;20009;-77
2022/08/01 08:22:58;;;;;;;9.80;2.22;;;18.40;99.90;;;;;;6174187;23;20016;-79
2022/08/01 08:25:25;;;;;;;11.25;2.50;;;18.30;99.90;;;;;;6199011;23;20087;-77
2022/08/01 08:27:51;;;;;;;7.75;2.00;;;18.50;99.90;;;;;;6197458;23;20027;-77
2022/08/01 08:30:17;;;;;;;8.32;2.38;;;18.80;99.90;;;;;;6147256;23;20260;-78
2022/08/01 08:32:43;;;;;;;8.63;2.00;;;18.90;99.90;;;;;;6172020;23;20039;-78
2022/08/01 08:35:09;;;;;;;11.50;2.30;;;18.40;99.90;;;;;;6172193;23;20016;-77
2022/08/01 08:37:35;;;;;;;7.60;2.60;;;18.50;99.90;;;;;;6197310;23;20377;-77
2022/08/01 08:40:02;;;;;;;10.85;2.33;;;18.40;99.90;;;;;;6173024;23;20020;-77
2022/08/01 08:42:28;;;;;;;7.93;2.33;;;18.40;99.90;;;;;;6174320;23;20009;-77
2022/08/01 08:44:57;;;;;;;12.80;2.20;;;18.30;99.90;;;;;;6176692;23;20044;-78
2022/08/01 08:47:24;;;;;;;15.48;2.70;;;18.50;99.90;;;;;;6173585;23;20065;-77
2022/08/01 08:49:53;;;;;;;11.18;2.67;;;18.30;99.90;;;;;;6124848;23;20012;-81
2022/08/01 08:52:21;;;;;;;15.77;2.58;;;18.00;99.90;;;;;;6198189;23;20020;-82
2022/08/01 08:54:49;;;;;;;8.80;2.50;;;18.20;99.90;;;;;;6175966;23;20012;-80
2022/08/01 08:57:15;;;;;;;5.45;2.00;;;18.20;99.90;;;;;;6148401;23;20019;-80
2022/08/01 08:59:45;;;;;;;7.93;2.17;;;18.40;99.90;;;;;;6173864;23;20018;-79
2022/08/01 09:02:11;;;;;;;9.40;1.90;;;18.70;99.90;;;;;;6173099;23;20008;-80
2022/08/01 09:04:38;;;;;;;10.70;2.22;;;18.90;99.90;;;;;;6172635;23;20180;-77
2022/08/01 09:07:05;;;;;;;7.82;1.98;;;19.20;99.90;;;;;;6194839;23;20250;-77
2022/08/01 09:09:31;;;;;;;7.18;2.08;;;19.20;99.90;;;;;;6197680;23;20249;-81
2022/08/01 09:11:57;;;;;;;11.23;2.70;;;19.50;99.90;;;;;;6173461;23;20008;-81
2022/08/01 09:14:29;;;;;;;4.80;2.20;;;19.50;99.90;;;;;;6146651;23;20024;-78
2022/08/01 09:17:10;;;;;;;7.65;1.75;;;19.40;99.90;;;;;;6141859;23;20203;-76
2022/08/01 09:20:03;;;;;;;10.75;2.88;;;19.50;99.90;;;;;;6173496;23;20036;-79
2022/08/01 09:22:33;;;;;;;9.48;1.88;;;19.70;99.90;;;;;;6167134;23;20008;-77
2022/08/01 09:25:10;;;;;;;8.93;1.83;;;19.30;99.90;;;;;;6173516;23;20032;-76
2022/08/01 09:27:39;;;;;;;5.28;1.77;;;19.20;99.90;;;;;;6146709;23;20013;-77
2022/08/01 09:30:12;;;;;;;5.78;1.83;;;19.60;99.90;;;;;;6172533;23;20206;-76
2022/08/01 09:33:00;;;;;;;9.65;1.80;;;20.00;99.90;;;;;;6197341;23;20012;-78
2022/08/01 09:35:37;;;;;;;8.50;2.38;;;19.70;99.90;;;;;;6172928;23;20084;-77
2022/08/01 09:38:21;;;;;;;8.25;1.80;;;19.60;99.90;;;;;;6171270;23;20040;-78
2022/08/01 09:40:47;;;;;;;7.45;1.73;;;19.50;99.90;;;;;;6198163;23;20265;-76
2022/08/01 09:43:13;;;;;;;7.30;2.10;;;19.50;99.90;;;;;;6172271;23;20009;-76
2022/08/01 09:45:39;;;;;;;9.52;3.17;;;19.50;99.90;;;;;;6197876;23;20076;-77
2022/08/01 09:48:08;;;;;;;13.13;2.17;;;19.70;99.90;;;;;;6196249;23;20345;-76
2022/08/01 09:50:48;;;;;;;10.77;1.83;;;20.50;99.90;;;;;;6171634;23;20043;-76
2022/08/01 09:53:16;;;;;;;9.73;1.88;;;20.20;99.90;;;;;;6197356;23;20048;-76
2022/08/01 09:55:42;;;;;;;8.05;1.70;;;20.10;99.90;;;;;;6173003;23;20303;-76
2022/08/01 09:58:10;;;;;;;5.25;1.50;;;20.40;99.90;;;;;;6172157;23;20202;-75
2022/08/01 10:00:37;;;;;;;8.57;2.42;;;20.40;99.90;;;;;;6173776;23;20069;-76
2022/08/01 10:03:22;;;;;;;8.68;1.67;;;20.50;99.90;;;;;;6173271;23;20281;-76
2022/08/01 10:05:48;;;;;;;6.25;1.60;;;19.80;99.90;;;;;;6173624;23;20066;-76
2022/08/01 10:08:14;;;;;;;4.40;1.30;;;20.20;99.90;;;;;;6172160;23;20042;-77
2022/08/01 10:10:40;;;;;;;5.07;1.58;;;20.90;99.90;;;;;;6147917;23;20012;-77
2022/08/01 10:13:07;;;;;;;3.38;1.45;;;20.90;99.90;;;;;;6172835;23;20012;-77
2022/08/01 10:15:34;;;;;;;7.40;1.65;;;20.40;99.90;;;;;;6149034;23;20013;-77
2022/08/01 10:18:03;;;;;;;4.93;1.60;;;20.40;99.90;;;;;;6172853;23;20012;-77
2022/08/01 10:20:32;;;;;;;6.70;1.60;;;20.80;99.90;;;;;;6172831;23;20031;-76
2022/08/01 10:23:01;;;;;;;6.20;1.90;;;21.00;99.90;;;;;;6197584;23;20004;-77
2022/08/01 10:25:28;;;;;;;6.07;1.60;;;21.00;99.90;;;;;;6196974;23;20075;-76
2022/08/01 10:27:56;;;;;;;8.00;1.90;;;21.10;99.90;;;;;;6149022;23;20016;-77
2022/08/01 10:30:22;;;;;;;6.30;1.67;;;21.00;99.90;;;;;;6172315;23;20012;-77
2022/08/01 10:32:51;;;;;;;6.65;1.73;;;21.10;99.90;;;;;;6197504;23;20013;-78
2022/08/01 10:35:18;;;;;;;8.07;1.58;;;21.50;99.90;;;;;;6172486;23;20020;-76
2022/08/01 10:37:46;;;;;;;5.72;1.48;;;21.80;99.90;;;;;;6171171;23;20021;-75
2022/08/01 10:40:13;;;;;;;8.60;1.77;;;21.20;99.90;;;;;;6170018;23;20008;-76
2022/08/01 10:42:41;;;;;;;4.53;1.35;;;21.30;99.90;;;;;;6146406;23;20224;-77
2022/08/01 10:45:09;;;;;;;5.00;1.92;;;21.00;99.90;;;;;;6184966;23;20267;-77
2022/08/01 10:47:46;;;;;;;6.30;1.40;;;21.10;99.90;;;;;;6161531;23;20354;-76
2022/08/01 10:50:27;;;;;;;5.10;1.35;;;21.50;99.90;;;;;;6161343;23;20027;-78
2022/08/01 10:53:12;;;;;;;5.70;1.50;;;20.90;99.90;;;;;;6164169;23;20020;-77
2022/08/01 10:55:56;;;;;;;3.75;1.42;;;21.50;99.90;;;;;;6191746;23;20080;-77
2022/08/01 10:58:37;;;;;;;3.15;1.27;;;21.40;99.90;;;;;;6166493;23;20019;-77
2022/08/01 11:01:16;;;;;;;3.80;1.20;;;21.70;99.90;;;;;;6167018;23;20015;-76
2022/08/01 11:03:43;;;;;;;4.95;1.60;;;21.50;99.90;;;;;;6163409;23;20009;-77
2022/08/01 11:06:23;;;;;;;4.80;1.33;;;21.10;99.90;;;;;;6186481;23;20016;-77
2022/08/01 11:08:54;;;;;;;4.45;1.30;;;21.00;99.90;;;;;;6162853;23;20083;-78
2022/08/01 11:11:21;;;;;;;5.28;1.50;;;21.30;99.90;;;;;;6166336;23;20060;-78
2022/08/01 11:14:11;;;;;;;6.90;1.45;;;21.60;99.90;;;;;;6191140;23;20068;-77
2022/08/01 11:16:39;;;;;;;4.97;1.27;;;20.80;99.90;;;;;;6191666;23;20021;-77
2022/08/01 11:19:06;;;;;;;5.72;1.20;;;20.70;99.90;;;;;;6166435;23;20068;-78
2022/08/01 11:22:02;;;;;;;5.57;1.20;;;20.90;99.90;;;;;;6190994;23;20346;-77
2022/08/01 11:24:46;;;;;;;5.47;1.63;;;20.50;99.90;;;;;;6191206;23;20024;-77
2022/08/01 11:27:15;;;;;;;7.15;1.52;;;20.70;99.90;;;;;;6191066;23;20013;-77
2022/08/01 11:29:40;;;;;;;9.13;1.70;;;21.30;99.90;;;;;;6166101;23;20020;-78
2022/08/01 11:32:25;;;;;;;3.17;1.45;;;21.60;99.90;;;;;;6115995;23;20008;-77
2022/08/01 11:34:55;;;;;;;6.85;1.75;;;21.30;99.90;;;;;;6190645;23;20183;-77
2022/08/01 11:37:29;;;;;;;6.03;1.48;;;21.80;99.90;;;;;;6190853;23;20009;-78
2022/08/01 11:40:14;;;;;;;3.47;1.13;;;21.70;99.90;;;;;;6141533;23;20269;-78
2022/08/01 11:42:40;;;;;;;4.97;1.10;;;21.60;99.90;;;;;;6164842;23;20149;-79
2022/08/01 11:45:09;;;;;;;3.15;1.20;;;21.60;99.90;;;;;;6165516;23;20017;-77
2022/08/01 11:47:46;;;;;;;4.30;1.13;;;21.20;99.90;;;;;;6164775;23;20021;-77
2022/08/01 11:50:37;;;;;;;5.47;1.83;;;21.10;99.90;;;;;;6190247;23;20047;-76
2022/08/01 11:53:07;;;;;;;3.65;1.60;;;21.10;99.90;;;;;;6141637;23;20013;-77
2022/08/01 11:55:34;;;;;;;4.28;1.35;;;21.00;99.90;;;;;;6166936;23;20191;-78
2022/08/01 11:58:05;;;;;;;4.28;1.20;;;20.80;99.90;;;;;;6142281;23;20013;-79
2022/08/01 12:00:32;;;;;;;4.85;1.42;;;21.10;99.90;;;;;;6166174;23;20032;-78
2022/08/01 12:03:00;;;;;;;3.83;1.10;;;21.40;99.90;;;;;;6163393;23;20110;-79
2022/08/01 12:05:27;;;;;;;5.90;1.33;;;21.30;99.90;;;;;;6165154;23;20009;-79
2022/08/01 12:07:55;;;;;;;5.47;1.45;;;21.50;99.90;;;;;;6117432;23;20315;-79
2022/08/01 12:10:23;;;;;;;3.70;1.30;;;21.30;99.90;;;;;;6164567;23;20173;-76
2022/08/01 12:13:01;;;;;;;5.68;1.40;;;21.40;99.90;;;;;;6187667;23;20303;-76
2022/08/01 12:15:33;;;;;;;4.53;1.33;;;21.40;99.90;;;;;;6163277;23;20021;-74
2022/08/01 12:18:01;;;;;;;5.15;1.40;;;21.40;99.90;;;;;;6185883;23;20042;-75
2022/08/01 12:20:29;;;;;;;4.85;1.40;;;21.30;99.90;;;;;;6141048;23;20013;-75
2022/08/01 12:23:00;;;;;;;5.57;1.20;;;21.50;99.90;;;;;;6190129;23;20021;-75
2022/08/01 12:25:26;;;;;;;3.65;1.10;;;21.50;99.90;;;;;;6188664;23;20017;-75
2022/08/01 12:27:52;;;;;;;4.32;1.50;;;21.70;99.90;;;;;;6187911;23;20239;-75
2022/08/01 12:30:24;;;;;;;4.20;1.30;;;21.80;99.90;;;;;;6165117;23;20012;-75
2022/08/01 12:32:52;;;;;;;4.75;1.30;;;21.80;99.90;;;;;;6189425;23;20342;-75
2022/08/01 12:35:22;;;;;;;4.93;1.38;;;22.40;99.90;;;;;;6187611;23;20027;-76
2022/08/01 12:37:51;;;;;;;3.15;1.20;;;21.80;99.90;;;;;;6163958;23;20060;-75
2022/08/01 12:40:24;;;;;;;7.47;2.42;;;21.50;99.90;;;;;;6188393;23;20017;-76
2022/08/01 12:42:53;;;;;;;6.22;1.20;;;21.50;99.90;;;;;;6164175;23;20307;-75
2022/08/01 12:45:28;;;;;;;5.07;1.45;;;21.50;99.90;;;;;;6187422;23;20202;-75
2022/08/01 12:47:57;;;;;;;4.22;1.40;;;21.50;99.90;;;;;;6189070;23;20246;-75
2022/08/01 12:50:25;;;;;;;3.42;1.33;;;21.80;99.90;;;;;;6189338;23;20091;-75
2022/08/01 12:52:51;;;;;;;5.20;1.80;;;21.90;99.90;;;;;;6164679;23;20009;-76